x

Pi-745 Tabs K (42045) Weather Station

10:00am - Sat 21st Jan 2017 All times are CST. -6 hours from GMT.

  • Wind
    13mph, 18mph gusts
  • Sea Temp 72°f
  • Air Temp 68°f
  • Sea Pressure 1004.2mb
  • Pi-745 Tabs K
  • Pi-745 Tabs K

More Historic Weather Station data

Upgrade to MSW Pro to gain access to the past 30 days of data for over 8000 Wavebouys and Weather Stations around the globe.

Join Pro

Comparision Forecast

View Surf forecast
   
Sat 01/21 10:00am 13 18 mph 1004.2mb 72f 68f
4:00am 13 18 mph 1003.4mb 72f 66f
3:00am 13 16 mph 1004.2mb 72f 67f
2:00am 16 18 mph 1005mb 72f 66f
12:00am 11 13 mph 1005.7mb 72f 67f
Fri 01/20 11:00pm 11 13 mph 1005.8mb 72f 68f
5:00pm 9 11 mph 1004.7mb 72f 69f
4:00pm 11 16 mph 1004.2mb 72f 69f
2:00pm 13 16 mph 1004.7mb 72f 69f
1:00pm 13 16 mph 1006.3mb 72f 70f
12:00pm 11
mph
1007.8mb 72f 69f
11:00am 13 16 mph 1007.9mb 72f 69f
10:00am 13 18 mph 1008.3mb 72f 70f
9:00am 7 9 mph 1008.8mb 72f 68f
5:00am 4 7 mph 1006.6mb 71f 68f
4:00am 2 4 mph 1006.8mb 71f 68f
3:00am 7 9 mph 1006.9mb 71f 68f
2:00am 9 11 mph 1006.6mb 71f 68f
12:00am 13 16 mph 1007.5mb 71f 67f
Thu 01/19 11:00pm 13
mph
1008.4mb 71f 67f
5:00pm 4
mph
1009.1mb 72f 64f
3:00pm 7 9 mph 1009.3mb 72f 63f
1:00pm 11 13 mph 1010.7mb 72f 62f
12:00pm 11 13 mph 1011.9mb 72f 63f
11:00am 13 18 mph 1013.6mb 72f 61f
10:00am 18 22 mph 1013.1mb 72f 65f
9:00am 13 16 mph 1011.7mb 72f 65f
8:00am 11 13 mph 1011.9mb 72f 64f
7:00am 7 9 mph 1013.5mb 72f 63f
6:00am 13 16 mph 1013.2mb 72f 62f
5:00am 11 13 mph 1012.9mb 72f 64f
4:00am 7 9 mph 1013.2mb 72f 64f
3:00am 7 9 mph 1013.4mb 71f 63f
2:00am 9 11 mph 1013.5mb 71f 63f
1:00am 11 13 mph 1014mb 71f 63f
12:00am 11 13 mph 1015.5mb 71f 64f
Wed 01/18 11:00pm 7 9 mph 1015.7mb 71f 64f
5:00pm 11 16 mph 1014.7mb 71f 60f
4:00pm 11 16 mph 1014.7mb 71f 60f
3:00pm 13 18 mph 1014.5mb 70f 60f
2:00pm 13 16 mph 1015mb 70f 61f
1:00pm 11 13 mph 1015.3mb 70f 62f
10:00am 7 9 mph 1017.7mb 69f 68f
8:00am 9
mph
1016.8mb 70f 68f
7:00am 11 13 mph 1016.3mb 70f 67f
5:00am 4 7 mph 1015.9mb 71f 68f
4:00am 4
mph
1015.9mb 71f 68f
3:00am 4 7 mph 1015.5mb 71f 68f
2:00am 11 13 mph 1015.4mb 71f 69f